Anaconda, MT (59711)

10:32 AM MDT on August 04, 2015 (GMT -0600)
West 3rd | | Change Station
CLOSE
Current Station
Personal Weather Station
Location: Anaconda, MT
Elevation: 5302 ft
Nearby Weather Stations

Elev 5302 ft 46.13 °N, 112.96 °W | Updated 2 minutes ago

Mostly Cloudy
Mostly Cloudy
82.2 °F
Feels Like 81 °F
N
2.0
Wind Variable Wind from NNE
Gusts 0.0 mph

Today
High -- | Low -- °F
--% Chance of Precip.
Yesterday
High -- | Low -- °F
Precip. -- in
6:17 AM 8:58 PM
Waning Gibbous, 76% visible
Pressure 29.91 in
Visibility 10.0 miles
Clouds Clear
Heat Index 81 °F
Dew Point 47 °F
Humidity 29%
Rainfall 0.00 in
Snow Depth Not available.
UV 4 out of 12
Pollen 5.10 out of 12
Air Quality Not available.
Flu Activity Not available.
METAR KBTM 041553Z AUTO 36003KT 10SM CLR 22/08 A3010 RMK AO2 SLP126 T02170078

More Conditions Fewer Conditions

Pressure 29.91 in
Visibility 10.0 miles
Clouds Clear
Heat Index 81 °F
Dew Point 47 °F
Humidity 29%
Rainfall 0.00 in
Snow Depth Not available.
UV 4 out of 12
Pollen 5.10 out of 12
Air Quality Not available.
Flu Activity Not available.
METAR KBTM 041553Z AUTO 36003KT 10SM CLR 22/08 A3010 RMK AO2 SLP126 T02170078

More Conditions Fewer Conditions

10-Day Weather Forecast

×

Almanac

Astronomy

Aug. 04, 2015 Rise Set
Actual Time
Civil Twilight
Nautical Twilight
Astronomical Twilight
Moon
Length of Visible Light
Length of Day
Tomorrow will be .
, % of the Moon is Illuminated

Today's Extremes

State Highs State Lows

Community

WunderPhotos

Upload Photos

1,843,919 photos uploaded!

WunderBlogs® & News

Nearby

Air Quality

  Air Quality AQ Index Pollutant
Not available.

Snow Depth

Station Depth Elevation

Earthquake Activity

City Distance Mag. Time & Date
Minimum magnitude displayed is 2.5.

Coastal Water Temperatures

Place Temperature

Stations

Nearby Weather Stations

Station Location Temp. Windchill Dew Point Humidity Wind Precip. Elev Updated Type